Time;durP1;ratioP1;P1;durP2;ratioP2;P2;SDS_P1;SDS_P2;PMS_P1;PMS_P2;Temp;Humidity;BMP_temperature;BMP_pressure;BME280_temperature;BME280_humidity;BME280_pressure;Samples;Min_cycle;Max_cycle;Signal;HPM_P1;HPM_P2
2021/12/26 00:01:32;;;;;;;3.63;2.17;;;-5.90;99.90;;;;;;5068152;28;20063;-61
2021/12/26 00:03:57;;;;;;;3.70;2.08;;;-5.90;99.90;;;;;;5067154;28;20481;-61
2021/12/26 00:06:26;;;;;;;2.85;1.92;;;-5.90;99.90;;;;;;5069526;28;20143;-61
2021/12/26 00:08:53;;;;;;;3.72;1.80;;;-5.90;99.90;;;;;;5056317;28;20045;-61
2021/12/26 00:11:19;;;;;;;4.85;2.00;;;-5.90;99.90;;;;;;5058360;28;20110;-61
2021/12/26 00:13:45;;;;;;;3.78;2.40;;;-5.90;99.90;;;;;;5057674;28;20436;-60
2021/12/26 00:16:11;;;;;;;5.45;2.25;;;-6.00;99.90;;;;;;5053417;28;20040;-61
2021/12/26 00:18:42;;;;;;;2.42;1.90;;;-6.00;99.90;;;;;;5053917;28;20055;-61
2021/12/26 00:21:07;;;;;;;4.07;2.38;;;-6.10;99.90;;;;;;5056403;28;20049;-61
2021/12/26 00:23:33;;;;;;;4.18;1.92;;;-6.00;99.90;;;;;;5062028;28;20513;-61
2021/12/26 00:25:59;;;;;;;3.88;2.22;;;-6.00;99.90;;;;;;5070178;28;20072;-61
2021/12/26 00:28:25;;;;;;;5.72;1.85;;;-6.10;99.90;;;;;;5056457;28;20041;-61
2021/12/26 00:30:50;;;;;;;4.45;2.25;;;-6.00;99.90;;;;;;5056265;28;20110;-62
2021/12/26 00:33:16;;;;;;;3.78;1.73;;;-6.00;99.90;;;;;;5054287;28;20386;-61
2021/12/26 00:35:42;;;;;;;3.63;2.30;;;-6.00;99.90;;;;;;5059627;28;20041;-61
2021/12/26 00:38:08;;;;;;;2.38;2.10;;;-6.00;99.90;;;;;;5057600;28;20039;-61
2021/12/26 00:40:33;;;;;;;5.35;1.58;;;-6.00;99.90;;;;;;5057330;28;20045;-61
2021/12/26 00:42:59;;;;;;;5.25;2.30;;;-6.00;99.90;;;;;;5057464;28;20052;-61
2021/12/26 00:45:25;;;;;;;2.92;2.15;;;-6.00;99.90;;;;;;5060443;28;20478;-61
2021/12/26 00:47:51;;;;;;;2.15;1.67;;;-6.00;99.90;;;;;;5055934;28;20055;-61
2021/12/26 00:50:26;;;;;;;4.43;2.30;;;-6.00;99.90;;;;;;5056767;28;20430;-61
2021/12/26 00:52:52;;;;;;;3.25;1.88;;;-6.10;99.90;;;;;;5058999;28;20709;-61
2021/12/26 00:55:18;;;;;;;2.72;1.65;;;-6.00;99.90;;;;;;5056223;28;20473;-61
2021/12/26 00:57:44;;;;;;;3.95;1.95;;;-6.00;99.90;;;;;;5058395;28;20055;-61
2021/12/26 01:00:17;;;;;;;3.92;2.50;;;-6.10;99.90;;;;;;5057627;28;20403;-61
2021/12/26 01:02:43;;;;;;;2.65;1.83;;;-6.10;99.90;;;;;;5059133;28;20474;-61
2021/12/26 01:05:09;;;;;;;4.28;2.00;;;-6.00;99.90;;;;;;5062371;28;20072;-61
2021/12/26 01:07:41;;;;;;;5.25;2.40;;;-6.10;99.90;;;;;;5058218;28;20048;-60
2021/12/26 01:10:07;;;;;;;2.42;1.95;;;-6.00;99.90;;;;;;5057321;28;20167;-61
2021/12/26 01:12:34;;;;;;;2.70;1.58;;;-6.00;99.90;;;;;;5060777;28;20479;-61
2021/12/26 01:15:05;;;;;;;6.00;2.28;;;-6.00;99.90;;;;;;5058152;28;20041;-60
2021/12/26 01:17:30;;;;;;;4.00;2.15;;;-6.00;99.90;;;;;;5066925;28;20351;-61
2021/12/26 01:19:56;;;;;;;2.92;2.13;;;-6.00;99.90;;;;;;5059487;28;20044;-60
2021/12/26 01:22:24;;;;;;;2.78;1.40;;;-6.00;99.90;;;;;;5066677;28;20117;-60
2021/12/26 01:24:55;;;;;;;3.42;1.55;;;-6.00;99.90;;;;;;5059156;28;20033;-60
2021/12/26 01:27:26;;;;;;;3.10;1.63;;;-6.00;99.90;;;;;;5062775;28;20052;-60
2021/12/26 01:29:53;;;;;;;4.95;2.60;;;-6.00;99.90;;;;;;5056748;28;20040;-61
2021/12/26 01:32:19;;;;;;;4.22;2.88;;;-6.10;99.90;;;;;;5055260;28;20056;-61
2021/12/26 01:34:46;;;;;;;3.42;2.05;;;-6.00;99.90;;;;;;5067225;28;20083;-60
2021/12/26 01:37:12;;;;;;;3.67;2.10;;;-6.10;99.90;;;;;;5056567;28;20489;-60
2021/12/26 01:39:37;;;;;;;2.30;2.10;;;-6.10;99.90;;;;;;5065990;28;20076;-61
2021/12/26 01:42:04;;;;;;;4.07;2.10;;;-6.10;99.90;;;;;;5061238;28;20079;-61
2021/12/26 01:44:31;;;;;;;3.53;2.50;;;-6.10;99.90;;;;;;5059412;28;20052;-60
2021/12/26 01:46:57;;;;;;;3.53;2.10;;;-6.10;99.90;;;;;;5055646;28;20119;-60
2021/12/26 01:49:27;;;;;;;5.85;2.30;;;-6.10;99.90;;;;;;5060941;28;20095;-60
2021/12/26 01:51:56;;;;;;;2.78;2.15;;;-6.10;99.90;;;;;;5057481;28;20044;-60
2021/12/26 01:54:32;;;;;;;2.60;2.20;;;-6.20;99.90;;;;;;5067661;28;20079;-60
2021/12/26 01:57:00;;;;;;;2.65;2.08;;;-6.20;99.90;;;;;;5065107;28;20049;-60
2021/12/26 01:59:26;;;;;;;2.95;1.88;;;-6.20;99.90;;;;;;5061840;28;20048;-60
2021/12/26 02:01:55;;;;;;;4.03;2.30;;;-6.20;99.90;;;;;;5060302;28;20064;-60
2021/12/26 02:04:21;;;;;;;3.90;2.00;;;-6.20;99.90;;;;;;5061557;28;20564;-60
2021/12/26 02:06:47;;;;;;;2.53;2.17;;;-6.20;99.90;;;;;;5063287;28;20117;-60
2021/12/26 02:09:13;;;;;;;2.42;1.90;;;-6.10;99.90;;;;;;5058372;28;20443;-61
2021/12/26 02:11:40;;;;;;;3.45;2.03;;;-6.10;99.90;;;;;;5057173;28;20352;-61
2021/12/26 02:14:06;;;;;;;3.28;1.98;;;-6.10;99.90;;;;;;5064276;28;20449;-60
2021/12/26 02:16:31;;;;;;;2.85;1.95;;;-6.10;99.90;;;;;;5058323;28;20068;-60
2021/12/26 02:18:57;;;;;;;3.97;2.30;;;-6.00;99.90;;;;;;5063512;28;20071;-60
2021/12/26 02:24:24;;;;;;;2.60;2.17;;;-6.10;99.90;;;;;;5059869;28;20072;-58
2021/12/26 02:29:39;;;;;;;2.63;1.45;;;-5.90;99.90;;;;;;5061535;28;20044;-59
2021/12/26 02:32:05;;;;;;;3.05;2.17;;;-5.90;99.90;;;;;;5065173;28;20352;-60
2021/12/26 02:34:31;;;;;;;2.97;2.30;;;-5.80;99.90;;;;;;5063415;28;20044;-61
2021/12/26 02:36:56;;;;;;;2.55;2.10;;;-5.80;99.90;;;;;;5062258;28;20037;-60
2021/12/26 02:39:23;;;;;;;2.78;2.03;;;-5.80;99.90;;;;;;5057694;28;20040;-60
2021/12/26 02:41:48;;;;;;;3.33;2.42;;;-5.80;99.90;;;;;;5063271;28;20490;-60
2021/12/26 02:44:14;;;;;;;4.03;1.98;;;-5.70;99.90;;;;;;5065705;28;20044;-61
2021/12/26 02:46:43;;;;;;;3.13;2.45;;;-5.80;99.90;;;;;;5064536;28;20094;-61
2021/12/26 02:49:09;;;;;;;3.13;2.25;;;-5.70;99.90;;;;;;5060469;28;20039;-60
2021/12/26 02:51:34;;;;;;;2.75;2.10;;;-5.80;99.90;;;;;;5062093;28;20036;-61
2021/12/26 02:54:00;;;;;;;4.38;2.30;;;-5.70;99.90;;;;;;5061690;28;20047;-60
2021/12/26 02:56:26;;;;;;;2.67;1.73;;;-5.70;99.90;;;;;;5058835;28;20037;-60
2021/12/26 02:58:52;;;;;;;1.67;1.40;;;-5.60;99.90;;;;;;5066378;28;20132;-61
2021/12/26 03:01:25;;;;;;;5.97;2.60;;;-5.50;99.90;;;;;;5066768;28;20040;-60
2021/12/26 03:03:51;;;;;;;4.95;2.28;;;-5.50;99.90;;;;;;5061746;28;20550;-60
2021/12/26 03:09:04;;;;;;;2.70;1.73;;;-5.50;99.90;;;;;;5054183;28;20064;-60
2021/12/26 03:11:30;;;;;;;5.05;2.42;;;-5.50;99.90;;;;;;5063080;28;20044;-61
2021/12/26 03:13:56;;;;;;;3.22;2.42;;;-5.50;99.90;;;;;;5055653;28;20041;-61
2021/12/26 03:16:21;;;;;;;2.47;2.28;;;-5.50;99.90;;;;;;5057409;28;20447;-60
2021/12/26 03:18:47;;;;;;;3.42;1.83;;;-5.40;99.90;;;;;;5064637;28;20092;-61
2021/12/26 03:21:12;;;;;;;3.03;2.03;;;-5.30;99.90;;;;;;5062241;28;20501;-60
2021/12/26 03:23:38;;;;;;;1.52;1.42;;;-5.30;99.90;;;;;;5064577;28;20075;-61
2021/12/26 03:26:08;;;;;;;2.45;2.05;;;-5.30;99.90;;;;;;5064675;28;20041;-60
2021/12/26 03:28:33;;;;;;;2.67;2.05;;;-5.30;99.90;;;;;;5059599;28;20266;-60
2021/12/26 03:30:59;;;;;;;3.92;2.33;;;-5.30;99.90;;;;;;5058455;28;20514;-60
2021/12/26 03:33:25;;;;;;;2.80;2.17;;;-5.30;99.90;;;;;;5059494;28;20473;-61
2021/12/26 03:35:51;;;;;;;2.88;2.20;;;-5.30;99.90;;;;;;5060229;28;20718;-61
2021/12/26 03:38:18;;;;;;;3.28;2.42;;;-5.40;99.90;;;;;;5060065;28;20055;-61
2021/12/26 03:40:45;;;;;;;2.58;1.90;;;-5.40;99.90;;;;;;5062231;28;20032;-61
2021/12/26 03:43:11;;;;;;;5.47;2.30;;;-5.40;99.90;;;;;;5059330;28;20076;-61
2021/12/26 03:45:37;;;;;;;4.82;2.22;;;-5.40;99.90;;;;;;5063895;28;20120;-61
2021/12/26 03:48:04;;;;;;;2.92;2.38;;;-5.50;99.90;;;;;;5060844;28;20048;-61
2021/12/26 03:50:31;;;;;;;3.88;2.50;;;-5.40;99.90;;;;;;5055418;28;20094;-61
2021/12/26 03:52:58;;;;;;;3.15;2.22;;;-5.40;99.90;;;;;;5057037;28;20052;-61
2021/12/26 03:55:25;;;;;;;3.22;2.17;;;-5.40;99.90;;;;;;5057994;28;20508;-61
2021/12/26 03:57:51;;;;;;;3.37;1.63;;;-5.40;99.90;;;;;;5065848;28;20113;-62
2021/12/26 04:00:19;;;;;;;5.35;2.25;;;-5.40;99.90;;;;;;5063537;28;20456;-61
2021/12/26 04:02:45;;;;;;;3.65;2.28;;;-5.40;99.90;;;;;;5062974;28;20037;-61
2021/12/26 04:05:12;;;;;;;3.65;2.50;;;-5.40;99.90;;;;;;5058888;28;20036;-61
2021/12/26 04:07:38;;;;;;;3.28;2.25;;;-5.50;99.90;;;;;;5060086;28;20045;-60
2021/12/26 04:10:06;;;;;;;3.22;2.22;;;-5.50;99.90;;;;;;5063665;28;20095;-61
2021/12/26 04:12:36;;;;;;;3.97;2.50;;;-5.50;99.90;;;;;;5058410;28;20045;-61
2021/12/26 04:15:08;;;;;;;3.92;2.22;;;-5.50;99.90;;;;;;5060620;28;20335;-61
2021/12/26 04:17:34;;;;;;;3.90;2.38;;;-5.50;99.90;;;;;;5060889;28;20511;-60
2021/12/26 04:20:00;;;;;;;5.25;2.17;;;-5.50;99.90;;;;;;5061727;28;20337;-59
2021/12/26 04:22:26;;;;;;;4.22;2.80;;;-5.50;99.90;;;;;;5062673;28;20486;-60
2021/12/26 04:24:51;;;;;;;2.63;1.92;;;-5.50;99.90;;;;;;5062814;28;20043;-61
2021/12/26 04:27:17;;;;;;;3.83;2.47;;;-5.60;99.90;;;;;;5064176;28;20040;-61
2021/12/26 04:29:42;;;;;;;4.60;2.97;;;-5.60;99.90;;;;;;5069350;28;20040;-61
2021/12/26 04:32:08;;;;;;;3.30;2.45;;;-5.60;99.90;;;;;;5066087;28;20640;-61
2021/12/26 04:34:34;;;;;;;4.80;3.00;;;-5.60;99.90;;;;;;5065133;28;20036;-61
2021/12/26 04:36:59;;;;;;;2.70;2.45;;;-5.60;99.90;;;;;;5067610;28;20383;-61
2021/12/26 04:39:25;;;;;;;3.92;2.63;;;-5.60;99.90;;;;;;5062184;28;20071;-60
2021/12/26 04:41:51;;;;;;;4.10;3.13;;;-5.60;99.90;;;;;;5066421;28;20120;-60
2021/12/26 04:44:16;;;;;;;3.88;2.63;;;-5.60;99.90;;;;;;5063321;28;20463;-61
2021/12/26 04:46:43;;;;;;;3.47;2.60;;;-5.60;99.90;;;;;;5064944;28;20060;-61
2021/12/26 04:49:09;;;;;;;4.03;2.20;;;-5.60;99.90;;;;;;5067241;28;20123;-61
2021/12/26 04:51:35;;;;;;;4.13;2.80;;;-5.50;99.90;;;;;;5066009;28;20131;-59
2021/12/26 04:54:00;;;;;;;3.58;2.88;;;-5.50;99.90;;;;;;5065254;28;20109;-61
2021/12/26 04:56:26;;;;;;;5.18;2.80;;;-5.60;99.90;;;;;;5068434;28;20048;-61
2021/12/26 04:58:52;;;;;;;3.25;2.85;;;-5.50;99.90;;;;;;5064696;28;20170;-61
2021/12/26 05:01:17;;;;;;;4.93;3.03;;;-5.50;99.90;;;;;;5066755;28;20059;-61
2021/12/26 05:03:43;;;;;;;3.60;2.55;;;-5.50;99.90;;;;;;5066207;28;20042;-61
2021/12/26 05:06:09;;;;;;;3.45;2.40;;;-5.50;99.90;;;;;;5063475;28;20037;-61
2021/12/26 05:08:34;;;;;;;3.05;2.17;;;-5.60;99.90;;;;;;5065942;28;20076;-61
2021/12/26 05:11:01;;;;;;;5.22;2.85;;;-5.50;99.90;;;;;;5065807;28;20055;-61
2021/12/26 05:13:26;;;;;;;4.18;2.47;;;-5.50;99.90;;;;;;5063929;28;20055;-60
2021/12/26 05:15:52;;;;;;;5.72;2.50;;;-5.40;99.90;;;;;;5066305;28;20040;-61
2021/12/26 05:18:17;;;;;;;4.18;2.35;;;-5.50;99.90;;;;;;5062083;28;20770;-61
2021/12/26 05:20:44;;;;;;;3.88;2.50;;;-5.50;99.90;;;;;;5067289;28;20044;-61
2021/12/26 05:23:11;;;;;;;3.55;2.75;;;-5.40;99.90;;;;;;5060548;28;20500;-60
2021/12/26 05:25:36;;;;;;;2.47;2.03;;;-5.40;99.90;;;;;;5065875;28;20135;-60
2021/12/26 05:28:02;;;;;;;4.18;2.47;;;-5.50;99.90;;;;;;5055432;28;20722;-61
2021/12/26 05:30:28;;;;;;;3.08;2.10;;;-5.40;99.90;;;;;;5057795;28;20047;-61
2021/12/26 05:32:54;;;;;;;6.63;2.95;;;-5.40;99.90;;;;;;5066965;28;20040;-61
2021/12/26 05:35:19;;;;;;;3.75;2.63;;;-5.40;99.90;;;;;;5064875;28;20052;-60
2021/12/26 05:37:46;;;;;;;4.82;2.83;;;-5.40;99.90;;;;;;5060512;28;20048;-59
2021/12/26 05:40:13;;;;;;;4.00;2.30;;;-5.40;99.90;;;;;;5062455;28;20041;-61
2021/12/26 05:42:39;;;;;;;4.87;2.90;;;-5.40;99.90;;;;;;5065339;28;20084;-61
2021/12/26 05:45:06;;;;;;;7.15;2.90;;;-5.50;99.90;;;;;;5060709;28;20132;-61
2021/12/26 05:47:32;;;;;;;4.57;3.13;;;-5.40;99.90;;;;;;5064442;28;20045;-61
2021/12/26 05:49:59;;;;;;;5.45;2.67;;;-5.50;99.90;;;;;;5063688;28;20033;-61
2021/12/26 05:52:24;;;;;;;4.10;2.75;;;-5.50;99.90;;;;;;5054416;28;20491;-61
2021/12/26 05:54:50;;;;;;;5.10;2.80;;;-5.40;99.90;;;;;;5057345;28;20049;-61
2021/12/26 05:57:16;;;;;;;2.42;2.15;;;-5.50;99.90;;;;;;5059320;28;20343;-61
2021/12/26 05:59:43;;;;;;;4.90;3.08;;;-5.40;99.90;;;;;;5061145;28;20055;-62
2021/12/26 06:02:10;;;;;;;5.93;3.13;;;-5.50;99.90;;;;;;5055237;28;20094;-61
2021/12/26 06:04:35;;;;;;;3.63;2.15;;;-5.50;99.90;;;;;;5062570;28;20119;-62
2021/12/26 06:07:01;;;;;;;2.55;2.35;;;-5.50;99.90;;;;;;5057206;28;20120;-61
2021/12/26 06:09:27;;;;;;;3.92;2.65;;;-5.50;99.90;;;;;;5064921;28;20040;-61
2021/12/26 06:11:52;;;;;;;5.72;2.30;;;-5.50;99.90;;;;;;5063799;28;20143;-61
2021/12/26 06:14:18;;;;;;;3.85;2.50;;;-5.50;99.90;;;;;;5064618;28;20048;-61
2021/12/26 06:16:43;;;;;;;5.22;2.95;;;-5.50;99.90;;;;;;5065004;28;20051;-61
2021/12/26 06:19:09;;;;;;;4.22;2.97;;;-5.60;99.90;;;;;;5064430;28;20041;-61
2021/12/26 06:21:35;;;;;;;4.88;3.10;;;-5.60;99.90;;;;;;5065486;28;20049;-61
2021/12/26 06:24:01;;;;;;;10.38;2.42;;;-5.60;99.90;;;;;;5067430;28;20099;-61
2021/12/26 06:26:27;;;;;;;2.60;2.40;;;-5.60;99.90;;;;;;5059091;28;20171;-60
2021/12/26 06:28:53;;;;;;;5.75;3.13;;;-5.60;99.90;;;;;;5058579;28;20044;-61
2021/12/26 06:31:19;;;;;;;3.72;2.90;;;-5.60;99.90;;;;;;5059200;28;20047;-60
2021/12/26 06:33:46;;;;;;;4.05;3.25;;;-5.60;99.90;;;;;;5053173;28;20078;-61
2021/12/26 06:36:13;;;;;;;5.28;3.05;;;-5.60;99.90;;;;;;5060023;28;20587;-60
2021/12/26 06:38:40;;;;;;;10.63;3.05;;;-5.60;99.90;;;;;;5062451;28;20101;-60
2021/12/26 06:41:06;;;;;;;4.75;2.97;;;-5.60;99.90;;;;;;5055564;28;20061;-60
2021/12/26 06:43:34;;;;;;;4.88;3.35;;;-5.60;99.90;;;;;;5052071;28;20045;-60
2021/12/26 06:46:00;;;;;;;3.92;2.78;;;-5.50;99.90;;;;;;5055978;28;20081;-61
2021/12/26 06:48:26;;;;;;;4.30;3.10;;;-5.50;99.90;;;;;;5054774;28;20041;-61
2021/12/26 06:50:53;;;;;;;5.18;3.33;;;-5.50;99.90;;;;;;5054042;28;20465;-60
2021/12/26 06:53:19;;;;;;;3.92;2.88;;;-5.50;99.90;;;;;;5055627;28;20381;-61
2021/12/26 06:55:45;;;;;;;4.72;3.20;;;-5.60;99.90;;;;;;5060666;28;20037;-60
2021/12/26 06:58:12;;;;;;;4.65;3.20;;;-5.60;99.90;;;;;;5064232;28;20041;-61
2021/12/26 07:00:38;;;;;;;5.03;3.38;;;-5.60;99.90;;;;;;5066204;28;20041;-61
2021/12/26 07:03:03;;;;;;;5.40;3.22;;;-5.60;99.90;;;;;;5062335;28;20047;-61
2021/12/26 07:05:29;;;;;;;4.80;2.90;;;-5.70;99.90;;;;;;5064284;28;20389;-61
2021/12/26 07:07:55;;;;;;;3.45;2.83;;;-5.70;99.90;;;;;;5063797;28;20359;-61
2021/12/26 07:10:20;;;;;;;5.68;3.58;;;-5.70;99.90;;;;;;5061765;28;20052;-62
2021/12/26 07:12:46;;;;;;;4.65;3.83;;;-5.70;99.90;;;;;;5063605;28;20041;-62
2021/12/26 07:15:13;;;;;;;4.72;3.70;;;-5.80;99.90;;;;;;5063378;28;20044;-62
2021/12/26 07:17:39;;;;;;;3.97;3.20;;;-5.80;99.90;;;;;;5060511;28;20033;-67
2021/12/26 07:20:07;;;;;;;5.70;3.15;;;-5.80;99.90;;;;;;5058526;28;20400;-61
2021/12/26 07:22:33;;;;;;;7.88;3.53;;;-5.80;99.90;;;;;;5061885;28;20426;-62
2021/12/26 07:24:58;;;;;;;5.20;3.38;;;-5.80;99.90;;;;;;5061665;28;20074;-62
2021/12/26 07:27:24;;;;;;;4.05;3.17;;;-5.90;99.90;;;;;;5065045;28;20037;-62
2021/12/26 07:29:50;;;;;;;5.45;3.83;;;-5.80;99.90;;;;;;5061344;28;20032;-62
2021/12/26 07:32:16;;;;;;;5.00;2.97;;;-5.90;99.90;;;;;;5063666;28;20040;-62
2021/12/26 07:34:41;;;;;;;5.13;3.67;;;-5.90;99.90;;;;;;5061967;28;20048;-62
2021/12/26 07:37:08;;;;;;;5.93;4.00;;;;;;;;;;5060658;28;20131;-62
2021/12/26 07:39:34;;;;;;;4.55;3.47;;;-5.90;99.90;;;;;;5059850;28;20500;-61
2021/12/26 07:42:00;;;;;;;5.97;4.18;;;-5.90;99.90;;;;;;5064827;28;20091;-61
2021/12/26 07:44:25;;;;;;;5.57;3.67;;;-5.90;99.90;;;;;;5067932;28;20509;-61
2021/12/26 07:46:51;;;;;;;7.40;4.30;;;-5.90;99.90;;;;;;5063703;28;20414;-61
2021/12/26 07:49:18;;;;;;;4.28;3.80;;;-5.90;99.90;;;;;;5069202;28;20044;-62
2021/12/26 07:51:45;;;;;;;6.30;4.43;;;-5.90;99.90;;;;;;5065739;28;20049;-61
2021/12/26 07:54:13;;;;;;;6.45;3.95;;;-5.90;99.90;;;;;;5060710;28;20049;-62
2021/12/26 07:56:39;;;;;;;6.20;4.10;;;-5.90;99.90;;;;;;5062941;28;20052;-62
2021/12/26 07:59:05;;;;;;;4.50;2.63;;;-5.90;99.90;;;;;;5060816;28;20037;-62
2021/12/26 08:01:31;;;;;;;6.47;3.78;;;-5.90;99.90;;;;;;5061180;28;20287;-61
2021/12/26 08:04:00;;;;;;;6.03;3.47;;;-5.90;99.90;;;;;;5066298;28;20465;-62
2021/12/26 08:06:26;;;;;;;4.90;4.00;;;-5.80;99.90;;;;;;5064232;28;20516;-62
2021/12/26 08:08:52;;;;;;;6.53;3.67;;;-5.80;99.90;;;;;;5066163;28;20045;-62
2021/12/26 08:11:18;;;;;;;6.72;3.85;;;-5.80;99.90;;;;;;5064959;28;20052;-62
2021/12/26 08:13:44;;;;;;;5.72;4.15;;;-5.80;99.90;;;;;;5065985;28;20106;-62
2021/12/26 08:16:10;;;;;;;5.95;4.05;;;-5.70;99.90;;;;;;5063332;28;20355;-62
2021/12/26 08:18:35;;;;;;;4.32;3.30;;;-5.70;99.90;;;;;;5065017;28;20051;-62
2021/12/26 08:21:01;;;;;;;7.28;4.25;;;-5.70;99.90;;;;;;5058528;28;20118;-60
2021/12/26 08:23:27;;;;;;;5.65;4.35;;;-5.70;99.90;;;;;;5061916;28;20060;-58
2021/12/26 08:25:54;;;;;;;5.43;3.97;;;-5.60;99.90;;;;;;5067814;28;20072;-62
2021/12/26 08:28:20;;;;;;;5.65;3.70;;;-5.60;99.90;;;;;;5067022;28;20120;-61
2021/12/26 08:30:46;;;;;;;6.18;3.80;;;-5.60;99.90;;;;;;5065724;28;20045;-62
2021/12/26 08:33:12;;;;;;;5.05;3.92;;;-5.50;99.90;;;;;;5069230;28;20040;-61
2021/12/26 08:35:39;;;;;;;4.95;2.95;;;;;;;;;;5062661;28;20041;-61
2021/12/26 08:38:05;;;;;;;4.45;3.50;;;-5.50;99.90;;;;;;5066060;28;20126;-61
2021/12/26 08:40:31;;;;;;;4.10;3.38;;;-5.40;99.90;;;;;;5065180;28;20037;-62
2021/12/26 08:42:57;;;;;;;5.82;4.10;;;-5.40;99.90;;;;;;5059323;28;20055;-63
2021/12/26 08:45:22;;;;;;;5.82;4.13;;;-5.30;99.90;;;;;;5066506;28;20381;-64
2021/12/26 08:47:48;;;;;;;6.03;4.13;;;-5.30;99.90;;;;;;5067338;28;20032;-63
2021/12/26 08:50:14;;;;;;;4.68;3.30;;;-5.30;99.90;;;;;;5066793;28;20070;-62
2021/12/26 08:52:41;;;;;;;4.28;3.03;;;-5.30;99.90;;;;;;5062612;28;20352;-63
2021/12/26 08:55:08;;;;;;;5.88;3.40;;;-5.20;99.90;;;;;;5058659;28;20051;-63
2021/12/26 08:57:33;;;;;;;3.85;3.22;;;-5.10;99.90;;;;;;5059584;28;20063;-63
2021/12/26 09:00:00;;;;;;;5.57;4.00;;;-5.10;99.90;;;;;;5055718;28;20041;-63
2021/12/26 09:02:26;;;;;;;5.65;3.70;;;-5.10;99.90;;;;;;5063747;28;20360;-63
2021/12/26 09:04:52;;;;;;;6.90;4.38;;;-5.10;99.90;;;;;;5069027;28;20405;-61
2021/12/26 09:07:17;;;;;;;4.40;3.63;;;-5.10;99.90;;;;;;5064368;28;20032;-62
2021/12/26 09:09:46;;;;;;;4.55;3.60;;;-5.00;99.90;;;;;;5063124;28;20154;-63
2021/12/26 09:12:11;;;;;;;6.65;3.72;;;-5.00;99.90;;;;;;5063424;28;20037;-63
2021/12/26 09:14:37;;;;;;;6.47;3.97;;;-4.90;99.90;;;;;;5061265;28;20351;-63
2021/12/26 09:17:03;;;;;;;5.13;3.85;;;-4.90;99.90;;;;;;5059229;28;20356;-63
2021/12/26 09:19:29;;;;;;;9.25;4.47;;;-4.80;99.90;;;;;;5054978;28;20048;-63
2021/12/26 09:21:59;;;;;;;5.18;4.15;;;-4.80;99.90;;;;;;5059504;28;20045;-63
2021/12/26 09:24:25;;;;;;;6.32;4.68;;;-4.70;99.90;;;;;;5063924;28;20079;-62
2021/12/26 09:26:51;;;;;;;7.20;4.47;;;-4.60;99.90;;;;;;5064753;28;20415;-62
2021/12/26 09:29:17;;;;;;;4.22;3.60;;;-4.50;99.90;;;;;;5060234;28;20484;-63
2021/12/26 09:31:43;;;;;;;5.22;4.10;;;-4.40;99.90;;;;;;5063618;28;20029;-62
2021/12/26 09:34:08;;;;;;;6.10;4.00;;;-4.40;99.90;;;;;;5061798;28;20135;-63
2021/12/26 09:36:35;;;;;;;6.53;4.35;;;-4.30;99.90;;;;;;5062397;28;20113;-62
2021/12/26 09:39:02;;;;;;;4.32;3.67;;;-4.20;99.90;;;;;;5064483;28;20040;-63
2021/12/26 09:41:28;;;;;;;4.82;3.05;;;-4.20;99.90;;;;;;5065626;28;20136;-63
2021/12/26 09:43:53;;;;;;;5.28;4.45;;;-4.10;99.90;;;;;;5058637;28;20122;-63
2021/12/26 09:46:19;;;;;;;5.40;3.45;;;-4.00;99.90;;;;;;5058072;28;20040;-63
2021/12/26 09:48:44;;;;;;;6.65;5.57;;;-4.00;99.90;;;;;;5059410;28;20044;-63
2021/12/26 09:51:10;;;;;;;4.38;3.90;;;-4.00;99.90;;;;;;5060915;28;20128;-63
2021/12/26 09:53:41;;;;;;;5.85;4.47;;;-3.90;99.90;;;;;;5064169;28;20048;-63
2021/12/26 09:56:08;;;;;;;5.47;3.35;;;-3.90;99.90;;;;;;5062736;28;20087;-62
2021/12/26 09:58:35;;;;;;;5.22;4.28;;;-3.90;99.90;;;;;;5065476;28;20455;-63
2021/12/26 10:01:00;;;;;;;5.47;4.38;;;-3.80;99.90;;;;;;5064200;28;20052;-63
2021/12/26 10:03:33;;;;;;;5.05;4.05;;;-3.80;99.90;;;;;;5065843;28;20059;-63
2021/12/26 10:05:59;;;;;;;5.53;3.88;;;-3.70;99.90;;;;;;5062661;28;20079;-63
2021/12/26 10:08:25;;;;;;;5.53;3.75;;;-3.70;99.90;;;;;;5055521;28;20148;-63
2021/12/26 10:11:05;;;;;;;6.43;4.35;;;-3.70;99.90;;;;;;5060427;28;20052;-63
2021/12/26 10:13:42;;;;;;;6.25;4.38;;;-3.70;99.90;;;;;;5057982;28;20117;-63
2021/12/26 10:16:08;;;;;;;9.27;5.47;;;-3.60;99.90;;;;;;5059152;28;20118;-63
2021/12/26 10:18:39;;;;;;;4.22;3.55;;;-3.60;99.90;;;;;;5055384;28;20488;-63
2021/12/26 10:21:24;;;;;;;6.50;4.80;;;-3.50;99.90;;;;;;5064867;28;20044;-63
2021/12/26 10:23:50;;;;;;;6.50;4.53;;;-3.50;99.90;;;;;;5062728;28;20044;-63
2021/12/26 10:26:28;;;;;;;5.20;4.65;;;-3.50;99.90;;;;;;5066463;28;20177;-63
2021/12/26 10:29:25;;;;;;;6.75;4.72;;;-3.40;99.90;;;;;;5059968;28;20106;-62
2021/12/26 10:32:01;;;;;;;7.65;5.20;;;-3.40;99.90;;;;;;5058684;28;20056;-63
2021/12/26 10:34:54;;;;;;;6.45;3.78;;;-3.30;99.90;;;;;;5059932;28;20110;-62
2021/12/26 10:37:23;;;;;;;5.13;3.15;;;-3.30;99.90;;;;;;5062715;28;20045;-63
2021/12/26 10:40:00;;;;;;;5.60;4.55;;;-3.30;99.90;;;;;;5058871;28;20110;-63
2021/12/26 10:42:32;;;;;;;6.70;4.97;;;-3.20;99.90;;;;;;5062816;28;20071;-63
2021/12/26 10:45:12;;;;;;;9.13;4.70;;;-3.20;99.90;;;;;;5065212;28;20139;-63
2021/12/26 10:47:41;;;;;;;5.78;4.65;;;-3.10;99.90;;;;;;5063679;28;20051;-63
2021/12/26 10:50:13;;;;;;;4.60;3.55;;;-3.10;99.90;;;;;;5060407;28;20041;-63
2021/12/26 10:52:42;;;;;;;6.65;4.80;;;-3.00;99.90;;;;;;5061066;28;20362;-63
2021/12/26 10:55:11;;;;;;;8.07;4.55;;;-2.90;99.90;;;;;;5063636;28;20405;-63
2021/12/26 10:57:43;;;;;;;6.90;4.88;;;-2.90;99.90;;;;;;5060855;28;20048;-63
2021/12/26 11:00:24;;;;;;;6.57;4.78;;;-2.80;99.90;;;;;;5065130;28;20052;-63
2021/12/26 11:02:53;;;;;;;7.85;5.13;;;-2.80;99.90;;;;;;5065255;28;20382;-63
2021/12/26 11:05:24;;;;;;;7.90;5.00;;;-2.70;99.90;;;;;;5055833;28;20634;-63
2021/12/26 11:07:57;;;;;;;6.80;4.18;;;-2.50;99.90;;;;;;5064893;28;20097;-63
2021/12/26 11:10:36;;;;;;;6.55;4.70;;;-2.50;99.90;;;;;;5057413;28;20072;-63
2021/12/26 11:13:05;;;;;;;7.95;5.22;;;-2.40;99.90;;;;;;5061490;28;20049;-63
2021/12/26 11:15:37;;;;;;;6.63;4.32;;;-2.40;99.90;;;;;;5062406;28;20152;-64
2021/12/26 11:18:09;;;;;;;6.45;4.80;;;-2.30;99.90;;;;;;5059432;28;20049;-63
2021/12/26 11:20:47;;;;;;;5.88;4.75;;;-2.30;99.90;;;;;;5057485;28;20415;-63
2021/12/26 11:23:17;;;;;;;;;;;-2.30;99.90;;;;;;5056999;28;20041;-63
2021/12/26 11:25:57;;;;;;;5.28;3.85;;;-2.30;99.90;;;;;;5058964;28;20015;-63
2021/12/26 11:28:26;;;;;;;7.32;5.03;;;-2.20;99.90;;;;;;5063624;28;20397;-63
2021/12/26 11:31:02;;;;;;;7.72;5.43;;;-2.20;99.90;;;;;;5062505;28;20500;-63
2021/12/26 11:33:28;;;;;;;8.07;4.97;;;-2.10;99.90;;;;;;5061546;28;20064;-63
2021/12/26 11:35:55;;;;;;;5.60;4.80;;;-2.00;99.90;;;;;;5064851;28;20352;-63
2021/12/26 11:38:23;;;;;;;9.00;5.35;;;-1.90;99.90;;;;;;5062800;28;20067;-63
2021/12/26 11:40:51;;;;;;;10.48;5.28;;;-1.90;99.90;;;;;;5058062;28;20044;-63
2021/12/26 11:43:22;;;;;;;6.25;5.28;;;-1.80;99.90;;;;;;5064835;28;20048;-63
2021/12/26 11:46:09;;;;;;;6.80;5.20;;;-1.70;99.90;;;;;;5064714;28;20055;-63
2021/12/26 11:48:48;;;;;;;7.30;4.68;;;-1.60;99.90;;;;;;5062831;28;20462;-63
2021/12/26 11:51:19;;;;;;;5.68;4.00;;;-1.60;99.90;;;;;;5058735;28;20139;-63
2021/12/26 11:53:57;;;;;;;5.72;4.53;;;-1.60;99.90;;;;;;5065767;28;20045;-63
2021/12/26 11:56:31;;;;;;;6.87;5.50;;;-1.50;99.90;;;;;;5061135;28;20054;-63
2021/12/26 11:59:25;;;;;;;7.28;4.95;;;-1.50;99.90;;;;;;5063598;28;20299;-63
2021/12/26 12:01:51;;;;;;;7.38;5.07;;;-1.40;99.90;;;;;;5065466;28;20037;-63
2021/12/26 12:04:23;;;;;;;7.00;4.50;;;-1.30;99.90;;;;;;5064392;28;20094;-62
2021/12/26 12:06:50;;;;;;;7.07;4.93;;;-1.30;99.90;;;;;;5062839;28;20043;-63
2021/12/26 12:09:36;;;;;;;6.95;5.20;;;-1.30;99.90;;;;;;5060098;28;20138;-63
2021/12/26 12:12:13;;;;;;;7.93;4.75;;;-1.20;99.90;;;;;;5064206;28;20142;-63
2021/12/26 12:14:49;;;;;;;7.85;4.95;;;-1.10;99.90;;;;;;5059590;28;20398;-63
2021/12/26 12:17:16;;;;;;;8.30;5.35;;;-1.10;99.90;;;;;;5061610;28;20099;-63
2021/12/26 12:20:15;;;;;;;9.63;5.43;;;-1.10;99.90;;;;;;5063409;28;20041;-63
2021/12/26 12:23:08;;;;;;;7.80;5.03;;;-1.00;99.90;;;;;;5065070;28;20393;-62
2021/12/26 12:25:34;;;;;;;7.82;5.57;;;-1.00;99.90;;;;;;5056637;28;20737;-63
2021/12/26 12:28:13;;;;;;;7.68;5.55;;;-1.00;99.90;;;;;;5058263;28;20216;-63
2021/12/26 12:30:42;;;;;;;7.00;5.60;;;-0.90;99.90;;;;;;5057503;28;20051;-63
2021/12/26 12:33:14;;;;;;;8.15;5.55;;;-0.90;99.90;;;;;;5057259;28;20041;-58
2021/12/26 12:35:57;;;;;;;7.90;5.03;;;-0.90;99.90;;;;;;5060729;28;20053;-63
2021/12/26 12:38:26;;;;;;;7.70;4.82;;;-0.90;99.90;;;;;;5064783;28;20043;-62
2021/12/26 12:40:52;;;;;;;5.82;4.47;;;-0.80;99.90;;;;;;5068237;28;20036;-63
2021/12/26 12:43:20;;;;;;;6.57;4.63;;;-0.80;99.90;;;;;;5064758;28;20041;-62
2021/12/26 12:45:51;;;;;;;;;;;-0.90;99.90;;;;;;5061198;28;20045;-62
2021/12/26 12:48:33;;;;;;;6.43;4.85;;;-0.80;99.90;;;;;;5052634;28;19927;-62
2021/12/26 12:51:24;;;;;;;8.27;5.80;;;-0.80;99.90;;;;;;5053122;28;20475;-62
2021/12/26 12:53:51;;;;;;;8.13;5.80;;;-0.80;99.90;;;;;;5054756;28;20037;-62
2021/12/26 12:56:40;;;;;;;7.25;5.85;;;-0.80;99.90;;;;;;5066207;28;20044;-63
2021/12/26 12:59:12;;;;;;;4.93;3.92;;;-0.70;99.90;;;;;;5053621;28;20053;-62
2021/12/26 13:01:39;;;;;;;7.50;5.43;;;-0.70;99.90;;;;;;5062716;28;20079;-62